createdAt,value
2019-05-17T00:01:46.768Z,8.63
2019-05-17T00:04:16.784Z,9.00
2019-05-17T00:06:47.761Z,8.17
2019-05-17T00:09:18.606Z,8.60
2019-05-17T00:11:49.342Z,10.20
2019-05-17T00:14:20.118Z,9.33
2019-05-17T00:16:50.844Z,9.17
2019-05-17T00:19:21.553Z,9.27
2019-05-17T00:21:52.268Z,8.47
2019-05-17T00:24:22.994Z,8.93
2019-05-17T00:26:53.650Z,9.00
2019-05-17T00:29:26.337Z,9.53
2019-05-17T00:31:56.886Z,9.63
2019-05-17T00:34:27.690Z,9.27
2019-05-17T00:36:58.396Z,8.90
2019-05-17T00:39:29.082Z,8.93
2019-05-17T00:41:59.769Z,9.03
2019-05-17T00:44:30.545Z,9.50
2019-05-17T00:47:01.244Z,9.93
2019-05-17T00:49:31.997Z,9.83
2019-05-17T00:52:02.676Z,9.30
2019-05-17T00:54:33.429Z,9.47
2019-05-17T00:57:04.085Z,9.33
2019-05-17T00:59:36.753Z,8.67
2019-05-17T01:02:07.208Z,8.93
2019-05-17T01:04:37.955Z,8.63
2019-05-17T01:07:08.563Z,8.70
2019-05-17T01:09:39.298Z,9.67
2019-05-17T01:12:10.004Z,9.87
2019-05-17T01:14:40.751Z,10.73
2019-05-17T01:17:11.486Z,10.30
2019-05-17T01:19:42.222Z,9.53
2019-05-17T01:22:12.939Z,8.63
2019-05-17T01:24:43.636Z,8.00
2019-05-17T01:27:14.342Z,8.70
2019-05-17T01:29:46.611Z,8.23
2019-05-17T01:32:17.445Z,9.73
2019-05-17T01:34:48.221Z,8.70
2019-05-17T01:37:18.950Z,9.27
2019-05-17T01:39:49.734Z,8.80
2019-05-17T01:42:20.359Z,9.60
2019-05-17T01:44:51.106Z,8.73
2019-05-17T01:47:21.785Z,8.67
2019-05-17T01:49:52.458Z,9.03
2019-05-17T01:52:23.136Z,8.80
2019-05-17T01:54:53.763Z,8.77
2019-05-17T01:57:24.447Z,8.50
2019-05-17T01:59:57.115Z,9.43
2019-05-17T02:02:33.121Z,9.13
2019-05-17T02:05:06.320Z,8.43
2019-05-17T02:07:37.264Z,8.60
2019-05-17T02:10:08.862Z,9.17
2019-05-17T02:12:39.538Z,8.20
2019-05-17T02:15:11.659Z,8.40
2019-05-17T02:17:42.460Z,7.67
2019-05-17T02:20:13.816Z,7.50
2019-05-17T02:22:47.073Z,8.10
2019-05-17T02:25:17.451Z,7.30
2019-05-17T02:27:48.220Z,7.57
2019-05-17T02:30:22.989Z,7.50
2019-05-17T02:32:54.057Z,6.37
2019-05-17T02:35:24.501Z,6.23
2019-05-17T02:37:55.213Z,6.43
2019-05-17T02:40:25.878Z,6.47
2019-05-17T02:42:56.556Z,6.80
2019-05-17T02:45:27.238Z,6.10
2019-05-17T02:47:58.009Z,6.20
2019-05-17T02:50:28.745Z,6.17
2019-05-17T02:52:59.491Z,6.27
2019-05-17T02:55:32.383Z,5.60
2019-05-17T02:58:03.249Z,5.77
2019-05-17T03:00:34.483Z,5.47
2019-05-17T03:03:05.218Z,4.70
2019-05-17T03:05:35.964Z,5.27
2019-05-17T03:08:06.993Z,4.57
2019-05-17T03:10:37.732Z,5.13
2019-05-17T03:13:08.503Z,5.47
2019-05-17T03:15:39.208Z,5.00
2019-05-17T03:18:13.218Z,5.00
2019-05-17T03:20:43.210Z,4.60
2019-05-17T03:23:14.099Z,5.07
2019-05-17T03:25:44.805Z,6.00
2019-05-17T03:28:15.553Z,6.27
2019-05-17T03:30:47.485Z,6.27
2019-05-17T03:33:18.721Z,7.10
2019-05-17T03:35:49.525Z,7.30
2019-05-17T03:38:22.755Z,7.10
2019-05-17T03:41:18.636Z,6.93
2019-05-17T03:43:24.970Z,6.67
2019-05-17T03:45:55.685Z,6.97
2019-05-17T03:48:26.353Z,7.00
2019-05-17T03:50:57.077Z,7.20
2019-05-17T03:53:27.846Z,6.70
2019-05-17T03:55:58.592Z,6.77
2019-05-17T03:58:33.026Z,6.50
2019-05-17T04:01:04.098Z,6.50
2019-05-17T04:03:35.560Z,7.67
2019-05-17T04:06:06.677Z,7.73
2019-05-17T04:08:37.503Z,7.73
2019-05-17T04:11:22.527Z,8.47
2019-05-17T04:13:43.061Z,7.83
2019-05-17T04:16:14.041Z,7.47
2019-05-17T04:18:45.171Z,6.93
2019-05-17T04:21:15.915Z,7.90
2019-05-17T04:23:46.712Z,7.73
2019-05-17T04:26:17.461Z,8.13
2019-05-17T04:28:48.214Z,7.03
2019-05-17T04:31:18.971Z,8.27
2019-05-17T04:33:49.767Z,8.63
2019-05-17T04:36:22.524Z,8.27
2019-05-17T04:38:52.922Z,8.33
2019-05-17T04:41:39.743Z,8.80
2019-05-17T04:43:56.053Z,8.40
2019-05-17T04:46:26.799Z,8.23
2019-05-17T04:48:57.584Z,7.80
2019-05-17T04:51:28.344Z,9.13
2019-05-17T04:53:59.087Z,8.60
2019-05-17T04:56:32.996Z,8.70
2019-05-17T04:59:03.363Z,9.07
2019-05-17T05:01:34.526Z,9.37
2019-05-17T05:04:05.441Z,9.20
2019-05-17T05:06:36.220Z,8.83
2019-05-17T05:09:07.996Z,10.27
2019-05-17T05:11:51.956Z,9.60
2019-05-17T05:14:12.844Z,9.47
2019-05-17T05:16:43.545Z,9.43
2019-05-17T05:19:14.341Z,8.63
2019-05-17T05:21:45.097Z,8.70
2019-05-17T05:24:15.847Z,8.10
2019-05-17T05:26:46.649Z,8.13
2019-05-17T05:29:17.439Z,7.43
2019-05-17T05:31:48.251Z,7.87
2019-05-17T05:34:21.613Z,9.03
2019-05-17T05:36:52.628Z,8.70
2019-05-17T05:39:23.331Z,8.67
2019-05-17T05:42:06.283Z,8.30
2019-05-17T05:44:26.694Z,8.47
2019-05-17T05:46:57.509Z,7.37
2019-05-17T05:49:28.287Z,7.23
2019-05-17T05:51:59.102Z,7.70
2019-05-17T05:54:31.842Z,7.83
2019-05-17T05:57:02.500Z,7.97
2019-05-17T05:59:35.394Z,7.57
2019-05-17T06:02:05.799Z,7.53
2019-05-17T06:04:36.524Z,6.63
2019-05-17T06:07:07.320Z,6.57
2019-05-17T06:09:38.092Z,6.97
2019-05-17T06:12:20.783Z,6.10
2019-05-17T06:14:41.718Z,5.20
2019-05-17T06:17:12.716Z,5.27
2019-05-17T06:19:43.625Z,5.60
2019-05-17T06:22:14.429Z,5.13
2019-05-17T06:24:45.144Z,5.30
2019-05-17T06:27:15.891Z,5.03
2019-05-17T06:29:46.627Z,5.70
2019-05-17T06:32:17.395Z,5.90
2019-05-17T06:34:48.150Z,5.67
2019-05-17T06:37:18.939Z,5.40
2019-05-17T06:39:52.501Z,6.17
2019-05-17T06:42:37.035Z,5.43
2019-05-17T06:44:54.916Z,5.80
2019-05-17T06:47:25.691Z,6.17
2019-05-17T06:49:56.428Z,6.03
2019-05-17T06:52:27.224Z,6.07
2019-05-17T06:54:57.981Z,6.87
2019-05-17T06:57:28.788Z,6.60
2019-05-17T07:00:02.427Z,6.53
2019-05-17T07:02:31.950Z,6.17
2019-05-17T07:05:05.317Z,6.43
2019-05-17T07:07:36.052Z,6.47
2019-05-17T07:10:07.129Z,6.13
2019-05-17T07:12:52.262Z,7.10
2019-05-17T07:15:10.865Z,7.13
2019-05-17T07:17:41.799Z,7.77
2019-05-17T07:20:13.075Z,7.53
2019-05-17T07:22:43.801Z,7.67
2019-05-17T07:25:14.708Z,7.73
2019-05-17T07:27:46.063Z,7.93
2019-05-17T07:30:19.348Z,7.93
2019-05-17T07:32:49.898Z,8.00
2019-05-17T07:35:20.734Z,8.00
2019-05-17T07:37:51.446Z,8.27
2019-05-17T07:40:22.405Z,8.83
2019-05-17T07:43:06.698Z,8.17
2019-05-17T07:45:25.542Z,9.03
2019-05-17T07:47:57.158Z,8.47
2019-05-17T07:50:29.305Z,9.13
2019-05-17T07:53:00.640Z,9.03
2019-05-17T07:55:31.436Z,8.60
2019-05-17T07:58:02.230Z,9.77
2019-05-17T08:00:33.028Z,10.20
2019-05-17T08:03:03.893Z,10.60
2019-05-17T08:05:34.611Z,9.37
2019-05-17T08:08:05.467Z,10.37
2019-05-17T08:10:36.244Z,10.20
2019-05-17T08:13:21.633Z,9.93
2019-05-17T08:15:39.878Z,10.27
2019-05-17T08:18:11.221Z,10.67
2019-05-17T08:20:42.010Z,11.43
2019-05-17T08:23:12.776Z,10.63
2019-05-17T08:25:52.678Z,12.67
2019-05-17T08:28:16.048Z,11.00
2019-05-17T08:30:46.841Z,10.53
2019-05-17T08:33:19.456Z,12.27
2019-05-17T08:35:50.050Z,12.33
2019-05-17T08:38:20.835Z,11.03
2019-05-17T08:40:51.591Z,12.23
2019-05-17T08:43:22.336Z,11.97
2019-05-17T08:45:53.142Z,12.07
2019-05-17T08:48:23.860Z,12.07
2019-05-17T08:50:54.666Z,11.87
2019-05-17T08:53:25.411Z,11.73
2019-05-17T08:55:56.218Z,12.50
2019-05-17T08:58:26.976Z,12.63
2019-05-17T09:01:00.018Z,12.27
2019-05-17T09:03:30.559Z,12.77
2019-05-17T09:06:02.740Z,13.07
2019-05-17T09:08:33.830Z,12.03
2019-05-17T09:11:04.596Z,12.70
2019-05-17T09:13:35.402Z,14.63
2019-05-17T09:16:06.181Z,12.90
2019-05-17T09:18:39.276Z,12.90
2019-05-17T09:21:09.742Z,12.93
2019-05-17T09:23:40.658Z,13.70
2019-05-17T09:26:11.418Z,12.80
2019-05-17T09:28:42.150Z,12.70
2019-05-17T09:31:12.937Z,12.93
2019-05-17T09:33:43.763Z,12.53
2019-05-17T09:36:14.528Z,13.00
2019-05-17T09:38:45.338Z,12.90
2019-05-17T09:41:16.103Z,12.40
2019-05-17T09:43:46.908Z,12.60
2019-05-17T09:46:19.683Z,12.63
2019-05-17T09:48:50.652Z,12.07
2019-05-17T09:51:21.601Z,12.60
2019-05-17T09:53:52.393Z,12.47
2019-05-17T09:56:23.163Z,13.00
2019-05-17T09:58:53.936Z,12.17
2019-05-17T10:01:24.682Z,12.30
2019-05-17T10:03:55.479Z,12.80
2019-05-17T10:06:26.255Z,13.53
2019-05-17T10:08:57.096Z,13.50
2019-05-17T10:11:27.837Z,12.80
2019-05-17T10:14:01.117Z,13.40
2019-05-17T10:16:31.121Z,13.20
2019-05-17T10:19:01.966Z,13.87
2019-05-17T10:21:33.674Z,13.80
2019-05-17T10:24:04.449Z,13.87
2019-05-17T10:26:35.088Z,13.83
2019-05-17T10:29:05.903Z,14.50
2019-05-17T10:31:36.658Z,14.30
2019-05-17T10:34:09.647Z,13.47
2019-05-17T10:36:40.239Z,13.90
2019-05-17T10:39:30.142Z,13.33
2019-05-17T10:42:00.908Z,15.77
2019-05-17T10:44:43.226Z,14.10
2019-05-17T10:47:04.063Z,13.43
2019-05-17T10:49:34.886Z,13.80
2019-05-17T10:52:05.736Z,14.27
2019-05-17T10:54:36.510Z,16.13
2019-05-17T10:57:07.306Z,13.07
2019-05-17T10:59:38.122Z,13.07
2019-05-17T11:02:09.944Z,15.43
2019-05-17T11:04:40.995Z,13.13
2019-05-17T11:07:11.732Z,12.20
2019-05-17T11:09:42.568Z,13.67
2019-05-17T11:12:13.333Z,12.80
2019-05-17T11:14:52.597Z,14.17
2019-05-17T11:17:16.547Z,14.30
2019-05-17T11:19:47.325Z,13.20
2019-05-17T11:22:18.090Z,13.80
2019-05-17T11:24:48.876Z,13.20
2019-05-17T11:27:19.643Z,11.30
2019-05-17T11:29:50.448Z,10.20
2019-05-17T11:32:21.236Z,11.03
2019-05-17T11:34:52.046Z,11.80
2019-05-17T11:37:26.131Z,12.33
2019-05-17T11:39:56.946Z,12.30
2019-05-17T11:42:27.737Z,13.80
2019-05-17T11:44:58.558Z,13.20
2019-05-17T11:47:29.323Z,14.40
2019-05-17T11:50:00.172Z,13.67
2019-05-17T11:52:30.943Z,13.27
2019-05-17T11:55:01.807Z,14.40
2019-05-17T11:57:32.552Z,14.03
2019-05-17T12:00:03.476Z,14.00
2019-05-17T12:02:34.262Z,14.07
2019-05-17T12:05:05.112Z,13.57
2019-05-17T12:07:35.966Z,13.87
2019-05-17T12:10:06.961Z,14.13
2019-05-17T12:12:37.788Z,13.50
2019-05-17T12:15:09.697Z,13.87
2019-05-17T12:17:40.571Z,12.90
2019-05-17T12:20:11.788Z,12.70
2019-05-17T12:22:42.573Z,13.10
2019-05-17T12:25:13.462Z,12.07
2019-05-17T12:27:44.267Z,10.73
2019-05-17T12:30:15.363Z,10.53
2019-05-17T12:32:46.099Z,11.67
2019-05-17T12:35:16.855Z,11.87
2019-05-17T12:37:47.656Z,10.73
2019-05-17T12:40:18.588Z,11.20
2019-05-17T12:42:49.830Z,10.43
2019-05-17T12:45:39.630Z,10.77
2019-05-17T12:48:12.900Z,9.03
2019-05-17T12:50:43.699Z,8.73
2019-05-17T12:53:14.516Z,8.37
2019-05-17T12:55:45.342Z,7.93
2019-05-17T12:58:16.181Z,8.00
2019-05-17T13:00:47.346Z,8.30
2019-05-17T13:03:18.252Z,8.87
2019-05-17T13:05:49.060Z,7.70
2019-05-17T13:08:20.056Z,8.53
2019-05-17T13:10:50.960Z,8.50
2019-05-17T13:13:21.847Z,8.90
2019-05-17T13:15:52.855Z,8.47
2019-05-17T13:18:23.707Z,8.87
2019-05-17T13:20:54.510Z,8.43
2019-05-17T13:23:25.447Z,8.23
2019-05-17T13:26:04.273Z,8.63
2019-05-17T13:28:35.210Z,8.70
2019-05-17T13:31:06.246Z,8.80
2019-05-17T13:33:37.092Z,9.33
2019-05-17T13:36:08.274Z,8.43
2019-05-17T13:38:39.596Z,8.07
2019-05-17T13:41:10.311Z,8.90
2019-05-17T13:43:41.146Z,9.20
2019-05-17T13:46:15.182Z,9.07
2019-05-17T13:48:46.091Z,8.97
2019-05-17T13:51:16.716Z,8.00
2019-05-17T13:53:47.485Z,7.63
2019-05-17T13:56:18.239Z,6.73
2019-05-17T13:58:48.989Z,7.03
2019-05-17T14:01:19.715Z,7.57
2019-05-17T14:03:50.471Z,7.70
2019-05-17T14:06:21.175Z,7.07
2019-05-17T14:08:51.997Z,7.27
2019-05-17T14:11:22.739Z,7.40
2019-05-17T14:13:53.523Z,7.43
2019-05-17T14:16:24.200Z,7.53
2019-05-17T14:18:55.030Z,7.83
2019-05-17T14:21:25.788Z,7.47
2019-05-17T14:23:56.529Z,6.37
2019-05-17T14:26:27.228Z,7.33
2019-05-17T14:28:58.002Z,6.30
2019-05-17T14:31:28.738Z,6.87
2019-05-17T14:33:59.546Z,7.37
2019-05-17T14:36:30.334Z,6.73
2019-05-17T14:39:01.109Z,6.27
2019-05-17T14:41:31.875Z,5.40
2019-05-17T14:44:02.650Z,4.87
2019-05-17T14:46:33.417Z,5.90
2019-05-17T14:49:04.247Z,5.90
2019-05-17T14:51:34.985Z,5.53
2019-05-17T14:54:05.918Z,6.13
2019-05-17T14:56:36.873Z,5.97
2019-05-17T14:59:07.678Z,5.93
2019-05-17T15:01:38.459Z,6.47
2019-05-17T15:04:09.245Z,6.27
2019-05-17T15:06:39.988Z,4.90
2019-05-17T15:09:11.692Z,4.37
2019-05-17T15:11:42.601Z,5.23
2019-05-17T15:14:13.357Z,5.53
2019-05-17T15:16:44.145Z,5.47
2019-05-17T15:19:14.918Z,5.80
2019-05-17T15:21:45.674Z,5.43
2019-05-17T15:24:16.441Z,5.00
2019-05-17T15:27:01.049Z,4.90
2019-05-17T15:29:19.665Z,5.07
2019-05-17T15:31:52.167Z,4.93
2019-05-17T15:34:23.087Z,5.57
2019-05-17T15:36:53.823Z,5.27
2019-05-17T15:39:24.611Z,4.90
2019-05-17T15:41:55.415Z,5.20
2019-05-17T15:44:27.063Z,4.97
2019-05-17T15:46:58.100Z,5.20
2019-05-17T15:49:28.825Z,4.50
2019-05-17T15:51:59.702Z,4.60
2019-05-17T15:54:30.489Z,4.13
2019-05-17T15:57:01.251Z,4.70
2019-05-17T15:59:32.060Z,5.13
2019-05-17T16:02:02.912Z,5.30
2019-05-17T16:04:33.648Z,5.37
2019-05-17T16:07:04.484Z,5.07
2019-05-17T16:09:35.215Z,4.40
2019-05-17T16:12:06.120Z,5.27
2019-05-17T16:14:36.919Z,4.97
2019-05-17T16:17:07.703Z,5.43
2019-05-17T16:19:38.586Z,4.53
2019-05-17T16:22:09.276Z,5.10
2019-05-17T16:24:40.082Z,5.40
2019-05-17T16:27:10.918Z,5.00
2019-05-17T16:29:41.676Z,5.57
2019-05-17T16:32:12.456Z,5.53
2019-05-17T16:34:43.209Z,5.60
2019-05-17T16:37:13.962Z,5.60
2019-05-17T16:39:44.720Z,5.93
2019-05-17T16:42:15.471Z,5.40
2019-05-17T16:44:46.241Z,4.97
2019-05-17T16:47:17.007Z,5.23
2019-05-17T16:49:47.775Z,5.17
2019-05-17T16:52:18.561Z,5.53
2019-05-17T16:54:49.480Z,5.87
2019-05-17T16:57:20.576Z,4.93
2019-05-17T16:59:51.324Z,4.97
2019-05-17T17:02:22.092Z,5.03
2019-05-17T17:04:52.882Z,4.67
2019-05-17T17:07:23.685Z,5.13
2019-05-17T17:09:54.455Z,5.00
2019-05-17T17:12:25.291Z,4.90
2019-05-17T17:14:56.001Z,5.03
2019-05-17T17:17:26.855Z,4.83
2019-05-17T17:19:57.612Z,4.67
2019-05-17T17:22:28.400Z,5.20
2019-05-17T17:24:59.143Z,5.60
2019-05-17T17:27:29.908Z,5.20
2019-05-17T17:30:00.819Z,5.07
2019-05-17T17:32:31.521Z,4.90
2019-05-17T17:35:02.488Z,5.23
2019-05-17T17:37:33.394Z,5.27
2019-05-17T17:40:04.510Z,5.70
2019-05-17T17:42:35.389Z,5.50
2019-05-17T17:45:06.926Z,5.90
2019-05-17T17:47:37.702Z,5.70
2019-05-17T17:50:08.706Z,5.80
2019-05-17T17:52:40.772Z,6.27
2019-05-17T17:55:12.689Z,6.00
2019-05-17T17:57:43.496Z,5.47
2019-05-17T18:00:14.451Z,5.67
2019-05-17T18:02:45.227Z,5.83
2019-05-17T18:05:16.653Z,5.30
2019-05-17T18:07:47.439Z,4.93
2019-05-17T18:10:26.329Z,5.27
2019-05-17T18:12:57.146Z,5.07
2019-05-17T18:15:39.406Z,5.27
2019-05-17T18:18:10.180Z,5.27
2019-05-17T18:20:41.057Z,4.70
2019-05-17T18:23:11.862Z,4.90
2019-05-17T18:25:42.652Z,4.70
2019-05-17T18:28:13.447Z,4.57
2019-05-17T18:30:44.272Z,4.47
2019-05-17T18:33:15.118Z,4.70
2019-05-17T18:35:45.905Z,4.80
2019-05-17T18:38:19.646Z,4.70
2019-05-17T18:40:50.450Z,4.60
2019-05-17T18:43:21.164Z,4.60
2019-05-17T18:45:51.911Z,5.17
2019-05-17T18:48:22.697Z,4.60
2019-05-17T18:50:53.443Z,4.73
2019-05-17T18:53:24.213Z,4.77
2019-05-17T18:55:55.048Z,4.80
2019-05-17T18:58:25.872Z,5.23
2019-05-17T19:00:56.687Z,5.10
2019-05-17T19:03:27.479Z,5.20
2019-05-17T19:05:58.251Z,4.43
2019-05-17T19:08:29.057Z,5.13
2019-05-17T19:10:59.817Z,4.80
2019-05-17T19:13:30.620Z,5.13
2019-05-17T19:16:01.447Z,4.83
2019-05-17T19:18:32.267Z,4.70
2019-05-17T19:21:03.110Z,5.13
2019-05-17T19:23:33.826Z,4.90
2019-05-17T19:26:05.822Z,4.80
2019-05-17T19:28:36.609Z,4.73
2019-05-17T19:31:07.385Z,4.70
2019-05-17T19:33:38.141Z,4.67
2019-05-17T19:36:08.914Z,4.43
2019-05-17T19:38:39.656Z,4.67
2019-05-17T19:41:10.419Z,4.30
2019-05-17T19:43:41.227Z,4.10
2019-05-17T19:46:12.022Z,4.00
2019-05-17T19:48:42.840Z,4.50
2019-05-17T19:51:13.655Z,4.17
2019-05-17T19:53:44.384Z,4.23
2019-05-17T19:56:15.159Z,4.43
2019-05-17T19:58:45.917Z,3.70
2019-05-17T20:01:16.797Z,3.90
2019-05-17T20:03:47.557Z,3.87
2019-05-17T20:06:18.322Z,4.00
2019-05-17T20:08:49.018Z,3.67
2019-05-17T20:11:33.387Z,3.50
2019-05-17T20:13:52.211Z,3.60
2019-05-17T20:16:23.008Z,3.80
2019-05-17T20:18:53.854Z,3.70
2019-05-17T20:21:24.690Z,4.10
2019-05-17T20:23:55.456Z,3.93
2019-05-17T20:26:26.233Z,3.73
2019-05-17T20:28:56.972Z,4.10
2019-05-17T20:31:28.087Z,4.00
2019-05-17T20:33:58.842Z,3.70
2019-05-17T20:36:29.628Z,4.00
2019-05-17T20:39:00.356Z,4.03
2019-05-17T20:41:31.150Z,4.20
2019-05-17T20:44:01.900Z,3.80
2019-05-17T20:46:32.705Z,4.00
2019-05-17T20:49:03.465Z,3.70
2019-05-17T20:51:34.556Z,3.70
2019-05-17T20:54:05.362Z,3.97
2019-05-17T20:56:36.152Z,3.60
2019-05-17T20:59:06.945Z,4.30
2019-05-17T21:01:37.731Z,3.87
2019-05-17T21:04:08.487Z,4.20
2019-05-17T21:06:39.263Z,4.43
2019-05-17T21:09:10.440Z,3.60
2019-05-17T21:11:41.226Z,4.07
2019-05-17T21:14:12.007Z,3.83
2019-05-17T21:16:42.809Z,4.53
2019-05-17T21:19:13.605Z,4.37
2019-05-17T21:21:44.330Z,4.40
2019-05-17T21:24:15.077Z,3.97
2019-05-17T21:26:45.865Z,3.93
2019-05-17T21:29:16.600Z,4.00
2019-05-17T21:31:47.387Z,4.33
2019-05-17T21:34:18.172Z,4.13
2019-05-17T21:36:48.969Z,4.10
2019-05-17T21:39:19.715Z,4.10
2019-05-17T21:41:50.552Z,4.00
2019-05-17T21:44:21.358Z,4.53
2019-05-17T21:47:03.806Z,4.67
2019-05-17T21:49:24.521Z,3.80
2019-05-17T21:51:55.658Z,3.87
2019-05-17T21:54:26.374Z,3.80
2019-05-17T21:56:57.189Z,4.33
2019-05-17T21:59:27.916Z,4.07
2019-05-17T22:01:58.762Z,6.70
2019-05-17T22:04:29.529Z,6.10
2019-05-17T22:07:00.263Z,6.00
2019-05-17T22:09:31.083Z,10.63
2019-05-17T22:12:05.201Z,9.33
2019-05-17T22:14:35.938Z,9.73
2019-05-17T22:17:06.732Z,8.10
2019-05-17T22:19:37.427Z,8.50
2019-05-17T22:22:08.154Z,8.03
2019-05-17T22:24:38.904Z,9.07
2019-05-17T22:27:09.648Z,10.73
2019-05-17T22:29:40.452Z,11.70
2019-05-17T22:32:11.151Z,13.53
2019-05-17T22:34:41.905Z,13.57
2019-05-17T22:37:12.641Z,14.23
2019-05-17T22:39:43.479Z,12.80
2019-05-17T22:42:14.215Z,10.83
2019-05-17T22:44:44.962Z,8.60
2019-05-17T22:47:15.722Z,8.00
2019-05-17T22:49:46.368Z,8.97
2019-05-17T22:52:17.102Z,8.43
2019-05-17T22:54:47.762Z,9.47
2019-05-17T22:57:18.483Z,8.30
2019-05-17T22:59:49.239Z,8.90
2019-05-17T23:02:20.016Z,9.10
2019-05-17T23:04:50.753Z,8.07
2019-05-17T23:07:21.458Z,7.27
2019-05-17T23:09:52.265Z,8.10
2019-05-17T23:12:22.911Z,7.27
2019-05-17T23:14:53.659Z,7.93
2019-05-17T23:17:24.414Z,7.77
2019-05-17T23:19:55.199Z,7.17
2019-05-17T23:22:25.920Z,6.90
2019-05-17T23:24:56.672Z,7.73
2019-05-17T23:27:27.388Z,6.77
2019-05-17T23:29:58.144Z,7.17
2019-05-17T23:32:28.802Z,7.37
2019-05-17T23:34:59.565Z,7.80
2019-05-17T23:37:30.270Z,7.43
2019-05-17T23:40:01.011Z,8.50
2019-05-17T23:42:31.737Z,10.33
2019-05-17T23:45:02.469Z,8.70
2019-05-17T23:47:33.149Z,8.43
2019-05-17T23:50:04.076Z,8.50
2019-05-17T23:52:34.723Z,10.87
2019-05-17T23:55:06.049Z,11.87
2019-05-17T23:57:37.077Z,10.57
